Richland, MT

3:11 AM MDT on August 28, 2014 (GMT -0600)
Wokal-Glasgow International | Change Station
CLOSE
Current Station
Airport
Location: Glasgow,
Elevation: 2293 ft
Nearby Weather Stations
Active Advisory: Flood Warning

Elev 2293 ft 48.21 °N, 106.62 °W | Updated 18 minutes ago

Clear
Clear
59 °F
Feels Like 59 °F
N
9
Wind Variable Wind from ESE

Today
High -- | Low -- °F
--% Chance of Precip.
Yesterday
High -- | Low -- °F
Precip. -- in
6:16 AM 7:54 PM
Waxing Crescent, 7% visible
Pressure 29.85 in
Visibility 10.0 miles
Clouds Clear
Dew Point 54 °F
Humidity 83%
Rainfall 0.00 in
Snow Depth Not available.
UV 0 out of 12
Pollen 9.50 out of 12
Air Quality Not available.
Flu Activity Not available.
METAR KGGW 280853Z AUTO 11008KT 10SM CLR 15/12 A2988 RMK AO2 SLP108 T01500122 58008

More Conditions Fewer Conditions

Pressure 29.85 in
Visibility 10.0 miles
Clouds Clear
Dew Point 54 °F
Humidity 83%
Rainfall 0.00 in
Snow Depth Not available.
UV 0 out of 12
Pollen 9.50 out of 12
Air Quality Not available.
Flu Activity Not available.
METAR KGGW 280853Z AUTO 11008KT 10SM CLR 15/12 A2988 RMK AO2 SLP108 T01500122 58008

More Conditions Fewer Conditions

10-Day Weather Forecast

Almanac

Astronomy

Aug. 28, 2014 Rise Set
Actual Time 6:16 AM MDT 7:54 PM MDT
Civil Twilight 5:43 AM MDT 8:27 PM MDT
Nautical Twilight 5:02 AM MDT 9:08 PM MDT
Astronomical Twilight 4:18 AM MDT 9:52 PM MDT
Moon 9:29 AM MDT 9:00 PM MDT
Length of Visible Light 14h 44m
Length of Day
13h 38m
Tomorrow will be 3m 25s shorter.
Waxing Crescent, 7% of the Moon is Illuminated
Today
Waxing Crescent
Sep 2
First Quarter
Sep 8
Full
Sep 15
Last Quarter
Sep 24
New

Today's Extremes

State Highs State Lows

Community

WunderPhotos

Upload Photos

1,747,918 photos uploaded!

Nearby

Snow Depth

Station Depth Elevation
Crystal Lake 0 in 6050 ft
Spur Park 0 in 8100 ft
Deadman Creek 0 in 6450 ft
Onion Park 0 in 7410 ft
Stringer Creek 0 in 6550 ft

Earthquake Activity

City Distance Mag. Time & Date
No recent earthquake activity has been reported nearby.
Minimum magnitude displayed is 2.5.

Coastal Water Temperatures

Place Temperature
No Stations Reporting

Nearby Weather Stations